Time;durP1;ratioP1;P1;durP2;ratioP2;P2;SDS_P1;SDS_P2;PMS_P1;PMS_P2;Temp;Humidity;BMP_temperature;BMP_pressure;BME280_temperature;BME280_humidity;BME280_pressure;Samples;Min_cycle;Max_cycle;Signal;HPM_P1;HPM_P2
2022/09/29 00:00:49;;;;;;;5.95;3.42;;;6.10;99.90;;;;;;4956644;28;20058;-67
2022/09/29 00:03:17;;;;;;;4.78;3.45;;;6.00;99.90;;;;;;4959430;28;20482;-67
2022/09/29 00:05:48;;;;;;;4.85;3.70;;;6.00;99.90;;;;;;4977829;28;20117;-67
2022/09/29 00:08:18;;;;;;;7.28;4.28;;;6.00;99.90;;;;;;4977570;28;20051;-67
2022/09/29 00:10:45;;;;;;;4.63;3.60;;;6.70;99.90;;;;;;4977078;28;20051;-68
2022/09/29 00:13:13;;;;;;;6.93;4.43;;;6.00;99.90;;;;;;4960340;28;20396;-67
2022/09/29 00:15:40;;;;;;;5.57;4.50;;;6.00;99.90;;;;;;4977369;28;20046;-68
2022/09/29 00:18:08;;;;;;;7.70;4.13;;;5.90;99.90;;;;;;4977325;28;20055;-68
2022/09/29 00:20:35;;;;;;;6.45;5.13;;;5.90;99.90;;;;;;4977673;28;20051;-68
2022/09/29 00:23:02;;;;;;;5.68;4.63;;;5.90;99.90;;;;;;4977063;28;20055;-68
2022/09/29 00:25:31;;;;;;;6.80;4.60;;;5.90;99.90;;;;;;4977175;28;20060;-67
2022/09/29 00:27:58;;;;;;;5.93;4.53;;;5.90;99.90;;;;;;4977497;28;20415;-68
2022/09/29 00:30:25;;;;;;;5.85;4.60;;;6.00;99.90;;;;;;4977037;28;20059;-68
2022/09/29 00:32:51;;;;;;;4.18;3.22;;;5.90;99.90;;;;;;4977200;28;20058;-68
2022/09/29 00:35:18;;;;;;;3.30;2.92;;;5.90;99.90;;;;;;4960344;28;20131;-67
2022/09/29 00:37:45;;;;;;;5.03;3.85;;;5.80;99.90;;;;;;4976237;28;20498;-68
2022/09/29 00:40:12;;;;;;;5.40;3.33;;;5.80;99.90;;;;;;4977182;28;20101;-68
2022/09/29 00:42:41;;;;;;;5.72;4.28;;;5.80;99.90;;;;;;4977069;28;20050;-68
2022/09/29 00:45:20;;;;;;;5.65;4.57;;;5.80;99.90;;;;;;4959167;28;20054;-68
2022/09/29 00:47:53;;;;;;;5.55;4.18;;;5.80;99.90;;;;;;4960161;28;20059;-68
2022/09/29 00:50:24;;;;;;;4.90;4.15;;;5.70;99.90;;;;;;4960128;28;20059;-67
2022/09/29 00:52:54;;;;;;;6.72;5.13;;;5.70;99.90;;;;;;4959004;28;20046;-68
2022/09/29 00:55:25;;;;;;;7.95;5.45;;;5.70;99.90;;;;;;4977358;28;20059;-68
2022/09/29 00:57:58;;;;;;;7.82;5.22;;;5.70;99.90;;;;;;4976907;28;20066;-69
2022/09/29 01:00:24;;;;;;;11.25;6.13;;;5.70;99.90;;;;;;4976545;28;20055;-68
2022/09/29 01:02:54;;;;;;;8.73;6.05;;;5.70;99.90;;;;;;4976645;28;20121;-69
2022/09/29 01:05:26;;;;;;;11.13;7.07;;;5.70;99.90;;;;;;4976805;28;20126;-67
2022/09/29 01:07:53;;;;;;;8.40;6.35;;;5.70;99.90;;;;;;4959421;28;20298;-68
2022/09/29 01:10:20;;;;;;;8.23;6.55;;;5.70;99.90;;;;;;4959309;28;20070;-66
2022/09/29 01:12:48;;;;;;;8.07;6.70;;;5.70;99.90;;;;;;4974882;28;20043;-67
2022/09/29 01:15:19;;;;;;;9.32;7.13;;;5.80;99.90;;;;;;4959527;28;20109;-67
2022/09/29 01:17:47;;;;;;;8.43;6.95;;;5.80;99.90;;;;;;4976574;28;20062;-66
2022/09/29 01:20:19;;;;;;;10.48;6.70;;;5.70;99.90;;;;;;4975009;28;20047;-67
2022/09/29 01:23:24;;;;;;;7.97;6.63;;;5.70;99.90;;;;;;4959583;28;20172;-68
2022/09/29 01:26:13;;;;;;;8.10;6.40;;;5.70;99.90;;;;;;4958205;28;20050;-67
2022/09/29 01:29:09;;;;;;;8.68;7.07;;;5.70;99.90;;;;;;4974923;28;20058;-68
2022/09/29 01:31:44;;;;;;;8.75;6.78;;;5.70;99.90;;;;;;4976237;28;20487;-68
2022/09/29 01:34:19;;;;;;;8.68;6.90;;;5.70;99.90;;;;;;4975597;28;20043;-68
2022/09/29 01:36:55;;;;;;;8.23;6.60;;;5.60;99.90;;;;;;4976345;28;20053;-68
2022/09/29 01:39:29;;;;;;;8.25;6.25;;;5.60;99.90;;;;;;4959067;28;20065;-68
2022/09/29 01:42:00;;;;;;;7.97;6.57;;;5.60;99.90;;;;;;4975490;28;20403;-68
2022/09/29 01:44:30;;;;;;;;;;;5.60;99.90;;;;;;4956206;29;20059;-68
2022/09/29 01:47:04;;;;;;;8.60;6.63;;;5.60;99.90;;;;;;4956588;29;19922;-67
2022/09/29 01:49:35;;;;;;;7.53;6.65;;;5.60;99.90;;;;;;4956264;29;20059;-67
2022/09/29 01:52:06;;;;;;;;;;;5.60;99.90;;;;;;4939936;29;20059;-68
2022/09/29 01:54:40;;;;;;;10.50;6.78;;;5.60;99.90;;;;;;4956330;29;19930;-67
2022/09/29 01:57:09;;;;;;;9.48;7.35;;;5.50;99.90;;;;;;4939697;28;20051;-67
2022/09/29 01:59:43;;;;;;;9.02;6.50;;;5.50;99.90;;;;;;4975823;28;20054;-67
2022/09/29 02:02:15;;;;;;;8.45;7.22;;;5.50;99.90;;;;;;4974829;28;20125;-67
2022/09/29 02:04:45;;;;;;;8.63;6.78;;;5.50;99.90;;;;;;4975713;28;20487;-69
2022/09/29 02:07:20;;;;;;;8.67;7.40;;;5.50;99.90;;;;;;4958796;28;20511;-68
2022/09/29 02:09:51;;;;;;;9.13;7.18;;;5.50;99.90;;;;;;4957325;28;20055;-68
2022/09/29 02:12:24;;;;;;;8.05;7.05;;;5.50;99.90;;;;;;4955121;29;20051;-69
2022/09/29 02:14:54;;;;;;;8.88;6.93;;;5.50;99.90;;;;;;4956162;29;20055;-69
2022/09/29 02:17:26;;;;;;;11.68;7.40;;;5.40;99.90;;;;;;4938676;29;20058;-69
2022/09/29 02:19:54;;;;;;;11.23;7.00;;;5.40;99.90;;;;;;4939371;29;20070;-67
2022/09/29 02:22:21;;;;;;;8.85;7.20;;;5.40;99.90;;;;;;4938690;29;20099;-68
2022/09/29 02:24:49;;;;;;;19.63;7.90;;;5.40;99.90;;;;;;4938072;29;20051;-67
2022/09/29 02:27:17;;;;;;;13.88;7.30;;;5.40;99.90;;;;;;4974584;28;20486;-68
2022/09/29 02:29:44;;;;;;;31.38;7.78;;;5.40;99.90;;;;;;4974898;28;20101;-68
2022/09/29 02:32:11;;;;;;;13.73;7.53;;;5.40;99.90;;;;;;4957327;28;20077;-68
2022/09/29 02:34:44;;;;;;;16.77;8.05;;;5.30;99.90;;;;;;4957691;28;20055;-68
2022/09/29 02:37:24;;;;;;;12.15;7.20;;;5.30;99.90;;;;;;4974329;28;20059;-69
2022/09/29 02:40:00;;;;;;;29.25;8.40;;;5.30;99.90;;;;;;4958040;28;20062;-69
2022/09/29 02:42:32;;;;;;;10.13;7.07;;;5.30;99.90;;;;;;4974585;28;20381;-68
2022/09/29 02:45:21;;;;;;;47.42;9.95;;;5.30;99.90;;;;;;4957056;28;20058;-67
2022/09/29 02:48:10;;;;;;;16.90;7.88;;;5.30;99.90;;;;;;4975135;28;20058;-67
2022/09/29 02:50:54;;;;;;;41.70;10.02;;;5.30;99.90;;;;;;4974866;28;20400;-67
2022/09/29 02:53:32;;;;;;;55.67;10.48;;;5.30;99.90;;;;;;4974079;28;20062;-67
2022/09/29 02:56:08;;;;;;;44.05;9.93;;;5.30;99.90;;;;;;4957581;28;20406;-68
2022/09/29 02:58:40;;;;;;;30.58;9.60;;;5.30;99.90;;;;;;4974177;28;20051;-67
2022/09/29 03:01:07;;;;;;;29.23;8.07;;;5.30;99.90;;;;;;4957533;28;20122;-68
2022/09/29 03:03:34;;;;;;;8.88;7.53;;;5.30;99.90;;;;;;4974633;28;20047;-67
2022/09/29 03:06:03;;;;;;;23.42;8.82;;;5.30;99.90;;;;;;4956773;28;20058;-67
2022/09/29 03:08:31;;;;;;;47.95;8.98;;;5.30;99.90;;;;;;4957267;28;20058;-66
2022/09/29 03:10:58;;;;;;;20.00;7.75;;;5.30;99.90;;;;;;4956811;28;20522;-68
2022/09/29 03:13:25;;;;;;;48.05;9.38;;;5.20;99.90;;;;;;4956803;28;20406;-68
2022/09/29 03:15:52;;;;;;;38.25;10.23;;;5.20;99.90;;;;;;4957384;28;20145;-67
2022/09/29 03:18:21;;;;;;;15.90;7.95;;;5.20;99.90;;;;;;4974631;28;20418;-68
2022/09/29 03:20:48;;;;;;;11.43;7.55;;;5.20;99.90;;;;;;4956726;28;20105;-68
2022/09/29 03:23:16;;;;;;;19.20;7.80;;;5.20;99.90;;;;;;4957251;28;20054;-67
2022/09/29 03:25:43;;;;;;;24.85;8.90;;;5.20;99.90;;;;;;4974294;28;20144;-67
2022/09/29 03:28:10;;;;;;;10.02;8.05;;;5.20;99.90;;;;;;4956682;28;20125;-67
2022/09/29 03:30:37;;;;;;;25.58;9.23;;;5.20;99.90;;;;;;4956834;28;20046;-69
2022/09/29 03:33:04;;;;;;;20.30;8.60;;;5.20;99.90;;;;;;4956679;28;20051;-68
2022/09/29 03:35:31;;;;;;;15.75;8.30;;;5.20;99.90;;;;;;4956124;28;20102;-69
2022/09/29 03:37:59;;;;;;;16.63;7.85;;;5.10;99.90;;;;;;4956668;28;20050;-68
2022/09/29 03:40:27;;;;;;;21.25;8.25;;;5.10;99.90;;;;;;4973216;28;20129;-68
2022/09/29 03:42:54;;;;;;;12.90;8.30;;;5.10;99.90;;;;;;4957045;28;20109;-67
2022/09/29 03:45:21;;;;;;;9.95;8.10;;;5.10;99.90;;;;;;4956819;28;20062;-67
2022/09/29 03:47:48;;;;;;;9.48;7.63;;;5.10;99.90;;;;;;4972630;28;20105;-68
2022/09/29 03:50:15;;;;;;;9.10;7.43;;;5.10;99.90;;;;;;4956855;28;20053;-68
2022/09/29 03:52:42;;;;;;;8.40;7.45;;;5.00;99.90;;;;;;4974334;28;20054;-68
2022/09/29 03:55:09;;;;;;;9.50;7.18;;;5.00;99.90;;;;;;4956192;28;20487;-67
2022/09/29 03:57:37;;;;;;;9.48;7.65;;;5.00;99.90;;;;;;4974124;28;20050;-67
2022/09/29 04:00:05;;;;;;;10.05;8.25;;;5.00;99.90;;;;;;4956511;28;20098;-67
2022/09/29 04:02:33;;;;;;;11.38;8.55;;;4.90;99.90;;;;;;4955590;28;20059;-68
2022/09/29 04:05:00;;;;;;;10.73;8.60;;;5.00;99.90;;;;;;4957120;28;20137;-68
2022/09/29 04:07:27;;;;;;;11.77;8.85;;;5.00;99.90;;;;;;4953090;29;20130;-68
2022/09/29 04:09:54;;;;;;;11.40;9.10;;;5.00;99.90;;;;;;4936900;29;20056;-68
2022/09/29 04:12:21;;;;;;;12.77;10.13;;;4.90;99.90;;;;;;4954617;29;20476;-68
2022/09/29 04:14:49;;;;;;;12.65;10.32;;;5.00;99.90;;;;;;4954442;29;20074;-68
2022/09/29 04:17:16;;;;;;;13.32;9.55;;;5.00;99.90;;;;;;4953746;29;20062;-68
2022/09/29 04:19:43;;;;;;;11.32;9.70;;;5.00;99.90;;;;;;4937690;29;20070;-68
2022/09/29 04:22:10;;;;;;;13.63;10.68;;;5.00;99.90;;;;;;4943970;28;20487;-67
2022/09/29 04:24:37;;;;;;;14.07;10.73;;;5.00;99.90;;;;;;4956252;28;20565;-68
2022/09/29 04:27:04;;;;;;;13.05;10.40;;;5.00;99.90;;;;;;4956531;28;20055;-68
2022/09/29 04:29:31;;;;;;;11.90;9.77;;;5.00;99.90;;;;;;4973184;28;20046;-68
2022/09/29 04:31:59;;;;;;;13.00;10.63;;;5.00;99.90;;;;;;4956418;28;20407;-67
2022/09/29 04:34:26;;;;;;;15.52;10.18;;;5.00;99.90;;;;;;4956448;28;20043;-67
2022/09/29 04:36:53;;;;;;;12.90;9.75;;;4.90;99.90;;;;;;4952192;29;20105;-68
2022/09/29 04:39:20;;;;;;;12.73;8.65;;;4.90;99.90;;;;;;4937744;29;20051;-68
2022/09/29 04:41:47;;;;;;;11.60;9.07;;;4.90;99.90;;;;;;4954168;29;20054;-67
2022/09/29 04:44:14;;;;;;;11.13;9.43;;;4.90;99.90;;;;;;4936431;29;20522;-66
2022/09/29 04:46:41;;;;;;;12.27;9.77;;;4.90;99.90;;;;;;4953736;29;20059;-67
2022/09/29 04:49:09;;;;;;;12.20;9.88;;;4.90;99.90;;;;;;4957810;28;20047;-67
2022/09/29 04:51:36;;;;;;;14.75;10.55;;;4.90;99.90;;;;;;4974756;28;20051;-67
2022/09/29 04:54:03;;;;;;;12.70;9.45;;;4.80;99.90;;;;;;4977252;28;20061;-67
2022/09/29 04:56:30;;;;;;;10.90;9.20;;;4.80;99.90;;;;;;4959611;28;20073;-68
2022/09/29 04:58:58;;;;;;;12.02;9.35;;;4.80;99.90;;;;;;4959462;28;20138;-66
2022/09/29 05:01:25;;;;;;;11.23;8.77;;;4.80;99.90;;;;;;4976787;28;20150;-67
2022/09/29 05:03:52;;;;;;;10.80;9.07;;;4.80;99.90;;;;;;4959256;28;20101;-66
2022/09/29 05:06:21;;;;;;;11.80;8.35;;;4.80;99.90;;;;;;4959076;28;20502;-67
2022/09/29 05:08:48;;;;;;;10.27;7.95;;;4.80;99.90;;;;;;4976752;28;20051;-67
2022/09/29 05:11:15;;;;;;;9.50;7.30;;;4.80;99.90;;;;;;4959047;28;20055;-67
2022/09/29 05:13:42;;;;;;;11.02;8.27;;;4.70;99.90;;;;;;4976068;28;20418;-67
2022/09/29 05:16:09;;;;;;;10.93;7.53;;;4.70;99.90;;;;;;4976703;28;20058;-66
2022/09/29 05:18:36;;;;;;;9.77;7.93;;;4.70;99.90;;;;;;4976276;28;20395;-67
2022/09/29 05:21:03;;;;;;;9.57;8.50;;;4.70;99.90;;;;;;4958078;28;20062;-67
2022/09/29 05:23:32;;;;;;;11.50;8.27;;;4.70;99.90;;;;;;4976329;28;20413;-67
2022/09/29 05:26:02;;;;;;;13.27;8.43;;;4.70;99.90;;;;;;4964063;28;20050;-67
2022/09/29 05:28:28;;;;;;;11.18;8.68;;;4.60;99.90;;;;;;4976918;28;20086;-66
2022/09/29 05:30:55;;;;;;;11.38;8.35;;;4.60;99.90;;;;;;4973931;28;20494;-67
2022/09/29 05:33:23;;;;;;;15.32;9.68;;;4.60;99.90;;;;;;4956725;28;20047;-66
2022/09/29 05:35:50;;;;;;;12.25;8.73;;;4.60;99.90;;;;;;4975942;28;20061;-68
2022/09/29 05:38:17;;;;;;;12.90;8.75;;;4.60;99.90;;;;;;4958493;28;20503;-68
2022/09/29 05:40:45;;;;;;;10.48;8.50;;;4.60;99.90;;;;;;4975417;28;20066;-68
2022/09/29 05:43:12;;;;;;;9.65;7.95;;;4.60;99.90;;;;;;4958984;28;20059;-68
2022/09/29 05:45:39;;;;;;;10.73;8.57;;;4.60;99.90;;;;;;4958445;28;20419;-67
2022/09/29 05:48:06;;;;;;;8.68;7.28;;;4.60;99.90;;;;;;4975374;28;20051;-68
2022/09/29 05:50:40;;;;;;;8.60;7.70;;;4.60;99.90;;;;;;4958687;28;20054;-68
2022/09/29 05:53:07;;;;;;;9.52;8.52;;;4.70;99.90;;;;;;4957977;28;20057;-68
2022/09/29 05:55:34;;;;;;;10.75;7.97;;;4.70;99.90;;;;;;4975368;28;20050;-68
2022/09/29 05:58:02;;;;;;;10.10;7.85;;;4.80;99.90;;;;;;4975952;28;20059;-68
2022/09/29 06:00:30;;;;;;;11.15;8.48;;;4.80;99.90;;;;;;4974415;28;20055;-67
2022/09/29 06:02:58;;;;;;;11.75;8.45;;;4.90;99.90;;;;;;4975290;28;20051;-68
2022/09/29 06:05:25;;;;;;;9.82;8.82;;;4.90;99.90;;;;;;4972176;28;20051;-67
2022/09/29 06:07:52;;;;;;;10.43;8.88;;;5.00;99.90;;;;;;4958773;28;20047;-67
2022/09/29 06:10:19;;;;;;;9.63;7.88;;;5.10;99.90;;;;;;4938686;28;20102;-68
2022/09/29 06:12:46;;;;;;;11.10;8.68;;;5.20;99.90;;;;;;4965900;28;20300;-67
2022/09/29 06:15:15;;;;;;;10.30;8.80;;;5.20;99.90;;;;;;4949928;28;20043;-67
2022/09/29 06:17:42;;;;;;;10.75;8.10;;;5.30;99.90;;;;;;4971946;28;20050;-67
2022/09/29 06:20:09;;;;;;;11.60;8.80;;;5.30;99.90;;;;;;4950338;28;20058;-67
2022/09/29 06:22:36;;;;;;;9.23;7.43;;;5.40;99.90;;;;;;4950827;28;20055;-67
2022/09/29 06:25:04;;;;;;;12.98;9.23;;;5.40;99.90;;;;;;4950365;28;20082;-67
2022/09/29 06:27:31;;;;;;;11.80;9.20;;;5.50;99.90;;;;;;4950180;28;20106;-67
2022/09/29 06:29:57;;;;;;;10.75;8.65;;;5.60;99.90;;;;;;4951953;28;20483;-67
2022/09/29 06:32:26;;;;;;;12.43;9.40;;;5.60;99.90;;;;;;4948529;28;20454;-68
2022/09/29 06:37:45;;;;;;;13.82;10.02;;;5.80;99.90;;;;;;4965086;28;20054;-68
2022/09/29 06:40:13;;;;;;;11.93;9.98;;;5.90;99.90;;;;;;4971335;28;20058;-67
2022/09/29 06:42:40;;;;;;;12.52;10.27;;;6.00;99.90;;;;;;4950374;28;20054;-67
2022/09/29 06:45:09;;;;;;;12.02;9.63;;;6.20;99.90;;;;;;4964057;28;20054;-68
2022/09/29 06:47:37;;;;;;;14.77;9.95;;;6.30;99.90;;;;;;4969465;28;20050;-67
2022/09/29 06:50:05;;;;;;;14.05;10.85;;;6.40;99.90;;;;;;4967334;28;20387;-67
2022/09/29 06:52:32;;;;;;;11.55;9.48;;;6.60;99.90;;;;;;4967977;28;20054;-68
2022/09/29 06:54:59;;;;;;;10.85;9.45;;;6.70;99.90;;;;;;4952508;28;20047;-68
2022/09/29 06:57:26;;;;;;;14.77;9.52;;;6.80;99.90;;;;;;4953732;28;20403;-68
2022/09/29 06:59:53;;;;;;;14.27;11.48;;;7.00;99.90;;;;;;4967513;28;20050;-67
2022/09/29 07:02:20;;;;;;;15.23;12.23;;;7.20;99.90;;;;;;4965911;28;20064;-67
2022/09/29 07:04:48;;;;;;;14.38;10.77;;;7.40;99.90;;;;;;4964376;28;20058;-67
2022/09/29 07:07:15;;;;;;;13.52;10.77;;;7.80;99.90;;;;;;4953868;28;20063;-68
2022/09/29 07:09:42;;;;;;;13.98;11.73;;;8.40;99.90;;;;;;4966847;28;20063;-68
2022/09/29 07:12:10;;;;;;;16.05;11.02;;;9.40;99.90;;;;;;4949995;28;20066;-68
2022/09/29 07:14:37;;;;;;;11.50;9.30;;;10.40;99.90;;;;;;4948397;28;20053;-68
2022/09/29 07:17:05;;;;;;;15.40;8.02;;;11.40;99.90;;;;;;4965554;28;20075;-69
2022/09/29 07:19:32;;;;;;;7.30;6.07;;;12.50;99.90;;;;;;4965061;28;20469;-68
2022/09/29 07:22:00;;;;;;;10.52;6.30;;;13.50;99.90;;;;;;4965080;28;20526;-69
2022/09/29 07:24:27;;;;;;;6.28;5.57;;;14.20;99.90;;;;;;4948067;28;20050;-68
2022/09/29 07:26:54;;;;;;;7.15;5.55;;;14.90;99.90;;;;;;4963253;28;20058;-67
2022/09/29 07:29:21;;;;;;;6.60;5.88;;;15.50;99.90;;;;;;4967651;28;20447;-68
2022/09/29 07:31:51;;;;;;;7.70;5.68;;;16.10;99.90;;;;;;4967056;28;20047;-67
2022/09/29 07:34:18;;;;;;;5.47;4.50;;;16.60;99.90;;;;;;4946709;28;20474;-69
2022/09/29 07:36:45;;;;;;;6.75;5.07;;;16.90;99.90;;;;;;4964049;28;20106;-68
2022/09/29 07:39:13;;;;;;;5.53;4.85;;;17.40;99.90;;;;;;4948522;28;20062;-68
2022/09/29 07:41:40;;;;;;;8.10;5.60;;;17.90;99.90;;;;;;4951813;28;20062;-68
2022/09/29 07:44:07;;;;;;;6.55;5.63;;;18.20;99.90;;;;;;4953760;28;20043;-69
2022/09/29 07:46:34;;;;;;;6.65;5.05;;;18.50;99.90;;;;;;4965233;28;20051;-69
2022/09/29 07:49:01;;;;;;;7.47;5.18;;;18.80;99.90;;;;;;4946443;28;20074;-69
2022/09/29 07:51:28;;;;;;;7.45;5.50;;;19.00;99.90;;;;;;4947477;28;20054;-68
2022/09/29 07:53:55;;;;;;;10.05;5.80;;;19.30;99.90;;;;;;4948383;28;20462;-69
2022/09/29 07:56:24;;;;;;;6.13;5.40;;;19.70;99.90;;;;;;4966164;28;20050;-69
2022/09/29 07:58:51;;;;;;;9.73;5.95;;;20.00;99.90;;;;;;4951239;28;20455;-69
2022/09/29 08:01:19;;;;;;;6.32;5.72;;;20.20;99.60;;;;;;4965658;28;20047;-67
2022/09/29 08:03:51;;;;;;;6.82;5.47;;;20.50;99.00;;;;;;4967509;28;20058;-69
2022/09/29 08:06:19;;;;;;;8.35;5.65;;;21.20;97.60;;;;;;4948295;28;20058;-68
2022/09/29 08:08:46;;;;;;;6.60;5.63;;;21.80;96.90;;;;;;4948998;28;20066;-69
2022/09/29 08:11:15;;;;;;;8.60;5.57;;;22.00;96.20;;;;;;4947646;28;20054;-69
2022/09/29 08:13:44;;;;;;;8.15;6.15;;;22.30;95.60;;;;;;4954707;28;20055;-69
2022/09/29 08:16:14;;;;;;;8.05;5.78;;;22.20;95.10;;;;;;4955805;28;20098;-68
2022/09/29 08:18:41;;;;;;;7.97;6.25;;;22.70;94.80;;;;;;4956382;28;20102;-68
2022/09/29 08:21:08;;;;;;;8.15;6.07;;;22.80;94.40;;;;;;4973535;28;20494;-69
2022/09/29 08:23:36;;;;;;;7.15;6.25;;;23.30;93.80;;;;;;4976016;28;20530;-69
2022/09/29 08:26:05;;;;;;;7.78;6.35;;;23.50;92.80;;;;;;4977130;28;20467;-69
2022/09/29 08:28:33;;;;;;;11.30;7.50;;;23.70;92.00;;;;;;4977387;28;20054;-68
2022/09/29 08:31:04;;;;;;;7.90;6.75;;;23.60;91.70;;;;;;4959744;28;20054;-68
2022/09/29 08:33:31;;;;;;;8.52;7.28;;;23.70;90.60;;;;;;4960231;28;20050;-69
2022/09/29 08:35:58;;;;;;;9.60;7.07;;;23.90;91.40;;;;;;4959168;28;20398;-68
2022/09/29 08:38:26;;;;;;;9.80;6.82;;;23.60;91.10;;;;;;4960227;28;20403;-68
2022/09/29 08:40:56;;;;;;;7.82;6.88;;;23.40;91.30;;;;;;4956307;29;20059;-69
2022/09/29 08:43:29;;;;;;;8.43;6.72;;;23.80;90.60;;;;;;4940429;29;20061;-68
2022/09/29 08:46:00;;;;;;;7.45;6.63;;;23.70;90.80;;;;;;4957235;29;20059;-69
2022/09/29 08:48:34;;;;;;;10.57;7.35;;;24.10;91.40;;;;;;4957551;29;20051;-69
2022/09/29 08:51:04;;;;;;;7.93;6.47;;;23.80;87.10;;;;;;4957718;29;20467;-69
2022/09/29 08:53:35;;;;;;;7.95;7.15;;;23.50;90.60;;;;;;4940868;28;20066;-69
2022/09/29 08:56:05;;;;;;;7.30;6.13;;;23.50;90.60;;;;;;4976152;28;20102;-68
2022/09/29 08:58:33;;;;;;;8.07;7.28;;;23.50;90.90;;;;;;4959021;28;20086;-68
2022/09/29 09:01:12;;;;;;;6.82;6.07;;;23.50;90.30;;;;;;4977178;28;20058;-68
2022/09/29 09:04:00;;;;;;;8.50;5.95;;;23.90;87.60;;;;;;4976808;28;20059;-67
2022/09/29 09:06:36;;;;;;;8.10;5.68;;;23.90;86.60;;;;;;4959587;28;20217;-68
2022/09/29 09:09:19;;;;;;;7.35;6.03;;;24.20;88.00;;;;;;4976036;28;20054;-68
2022/09/29 09:12:06;;;;;;;6.57;5.78;;;24.40;88.00;;;;;;4955396;29;20047;-68
2022/09/29 09:14:50;;;;;;;5.82;5.15;;;24.30;86.10;;;;;;4957255;29;20166;-68
2022/09/29 09:17:29;;;;;;;5.53;4.32;;;24.70;85.50;;;;;;4957170;29;20047;-69
2022/09/29 09:20:22;;;;;;;6.68;4.53;;;25.00;84.30;;;;;;4950949;28;20499;-68
2022/09/29 09:22:57;;;;;;;6.10;4.78;;;25.40;81.60;;;;;;4959458;28;20541;-69
2022/09/29 09:25:30;;;;;;;8.73;4.97;;;25.00;81.30;;;;;;4958735;28;20117;-68
2022/09/29 09:28:04;;;;;;;7.05;5.07;;;25.10;81.90;;;;;;4959064;28;20113;-68
2022/09/29 09:30:41;;;;;;;4.95;3.85;;;24.80;83.00;;;;;;4958793;28;20450;-70
2022/09/29 09:33:17;;;;;;;4.45;3.95;;;25.40;81.40;;;;;;4976113;28;20066;-69
2022/09/29 09:35:49;;;;;;;5.65;3.65;;;26.00;79.20;;;;;;4975411;28;20133;-68
2022/09/29 09:38:20;;;;;;;4.60;2.92;;;26.00;80.00;;;;;;4975473;28;20507;-69
2022/09/29 09:40:50;;;;;;;5.03;3.22;;;26.40;78.50;;;;;;4975181;28;20055;-69
2022/09/29 09:43:22;;;;;;;5.38;3.45;;;26.30;78.60;;;;;;4976671;28;20074;-70
2022/09/29 09:45:54;;;;;;;4.68;3.38;;;26.30;78.00;;;;;;4975745;28;20050;-68
2022/09/29 09:48:26;;;;;;;4.07;3.03;;;26.00;78.10;;;;;;4958433;28;20106;-68
2022/09/29 09:50:55;;;;;;;5.35;3.20;;;26.30;77.80;;;;;;4955160;29;20511;-69
2022/09/29 09:53:28;;;;;;;3.78;2.90;;;26.30;76.90;;;;;;4945720;28;20513;-68
2022/09/29 09:56:08;;;;;;;4.85;2.90;;;26.30;77.20;;;;;;4958469;28;20055;-69
2022/09/29 09:59:07;;;;;;;4.45;2.55;;;26.80;76.20;;;;;;4957080;28;20073;-69
2022/09/29 10:01:34;;;;;;;4.57;2.72;;;26.60;74.60;;;;;;4975781;28;20411;-69
2022/09/29 10:04:02;;;;;;;3.28;2.20;;;26.20;76.70;;;;;;4957358;28;20068;-68
2022/09/29 10:06:30;;;;;;;3.30;2.10;;;26.20;76.20;;;;;;4975457;28;20047;-69
2022/09/29 10:08:57;;;;;;;4.10;2.47;;;27.00;74.80;;;;;;4974636;28;20462;-69
2022/09/29 10:11:26;;;;;;;3.75;2.80;;;26.80;75.00;;;;;;4950126;28;20063;-69
2022/09/29 10:14:00;;;;;;;4.60;2.53;;;26.50;74.10;;;;;;4946610;28;20095;-70
2022/09/29 10:16:33;;;;;;;3.45;2.45;;;26.10;74.00;;;;;;4954599;28;20054;-70
2022/09/29 10:19:00;;;;;;;4.00;2.50;;;26.90;74.00;;;;;;4939100;29;20110;-69
2022/09/29 10:21:40;;;;;;;2.85;2.17;;;26.50;73.30;;;;;;4938304;29;20051;-70
2022/09/29 10:24:21;;;;;;;4.80;3.35;;;27.70;71.80;;;;;;4939036;29;20051;-69
2022/09/29 10:26:51;;;;;;;3.83;2.17;;;28.10;71.20;;;;;;4964103;28;20082;-69
2022/09/29 10:29:25;;;;;;;4.50;2.72;;;27.30;71.50;;;;;;4974930;28;20054;-69
2022/09/29 10:32:02;;;;;;;3.40;2.40;;;27.60;70.70;;;;;;4960096;28;20047;-70
2022/09/29 10:34:30;;;;;;;3.33;2.30;;;27.40;70.60;;;;;;4954625;28;20054;-68
2022/09/29 10:37:01;;;;;;;2.88;2.00;;;27.60;71.30;;;;;;4953959;28;20166;-68
2022/09/29 10:39:37;;;;;;;4.25;2.20;;;27.60;70.90;;;;;;4954803;28;20423;-68
2022/09/29 10:42:22;;;;;;;3.67;1.83;;;28.00;69.40;;;;;;4949309;28;20046;-68
2022/09/29 10:44:54;;;;;;;4.88;1.90;;;27.80;68.70;;;;;;4956263;28;20114;-69
2022/09/29 10:47:23;;;;;;;2.30;1.45;;;27.80;69.60;;;;;;4958996;28;20070;-69
2022/09/29 10:50:22;;;;;;;3.20;1.90;;;27.90;68.80;;;;;;4950494;29;20055;-69
2022/09/29 10:52:54;;;;;;;3.95;1.85;;;27.40;68.00;;;;;;4954826;28;20058;-69
2022/09/29 10:55:23;;;;;;;2.65;1.35;;;27.40;70.60;;;;;;4954697;28;20904;-70
2022/09/29 10:57:52;;;;;;;2.15;1.00;;;27.40;69.60;;;;;;4958932;28;20042;-69
2022/09/29 11:00:33;;;;;;;1.63;0.90;;;27.30;69.10;;;;;;4946432;28;20070;-69
2022/09/29 11:03:06;;;;;;;2.17;1.10;;;27.30;68.00;;;;;;4951373;28;20434;-68
2022/09/29 11:05:35;;;;;;;1.60;0.80;;;27.60;67.90;;;;;;4940447;28;20051;-67
2022/09/29 11:08:04;;;;;;;3.78;0.93;;;27.10;67.90;;;;;;4954719;28;20043;-68
2022/09/29 11:10:34;;;;;;;2.63;0.80;;;27.30;68.40;;;;;;4961679;28;20463;-68
2022/09/29 11:13:38;;;;;;;2.65;1.10;;;27.70;68.20;;;;;;4954262;28;20047;-69
2022/09/29 11:16:14;;;;;;;1.70;1.10;;;29.10;66.10;;;;;;4937025;29;20047;-68
2022/09/29 11:18:43;;;;;;;3.63;1.35;;;28.10;66.10;;;;;;4953749;28;20059;-68
2022/09/29 11:21:47;;;;;;;3.45;1.38;;;26.40;67.80;;;;;;4940877;29;20082;-69
2022/09/29 11:24:25;;;;;;;2.00;1.20;;;24.70;70.40;;;;;;4961280;28;20054;-78
2022/09/29 11:26:59;;;;;;;2.60;1.35;;;24.40;72.60;;;;;;4941163;28;20055;-79
2022/09/29 11:29:36;;;;;;;2.92;1.67;;;23.90;72.70;;;;;;4939221;28;20475;-80
2022/09/29 11:32:24;;;;;;;2.80;1.67;;;23.40;73.90;;;;;;4948887;28;20059;-76
2022/09/29 11:35:07;;;;;;;2.65;1.50;;;22.90;73.80;;;;;;4936797;28;20055;-75
2022/09/29 11:37:50;;;;;;;2.00;1.25;;;21.80;76.40;;;;;;4941475;29;20059;-72
2022/09/29 11:40:24;;;;;;;4.65;1.30;;;21.20;77.60;;;;;;4952519;28;20141;-72
2022/09/29 11:43:26;;;;;;;1.90;1.15;;;20.70;78.40;;;;;;4953866;28;20083;-71
2022/09/29 11:46:00;;;;;;;2.42;1.15;;;20.20;79.40;;;;;;4961210;28;20048;-71
2022/09/29 11:49:03;;;;;;;1.75;0.80;;;20.20;80.40;;;;;;4948956;28;20106;-72
2022/09/29 11:51:42;;;;;;;2.25;0.95;;;21.90;80.50;;;;;;4933651;28;20059;-72
2022/09/29 11:54:34;;;;;;;2.63;0.75;;;23.20;76.70;;;;;;4948346;28;20055;-73
2022/09/29 11:57:09;;;;;;;1.42;0.70;;;24.50;70.80;;;;;;4945061;28;20134;-72
2022/09/29 12:00:08;;;;;;;1.45;0.77;;;25.20;70.10;;;;;;4943083;29;20055;-72
2022/09/29 12:03:10;;;;;;;1.63;0.90;;;26.50;67.50;;;;;;4943410;28;20115;-72
2022/09/29 12:05:51;;;;;;;1.42;0.70;;;27.10;66.10;;;;;;4952688;28;20047;-72
2022/09/29 12:08:30;;;;;;;2.17;0.90;;;27.30;66.80;;;;;;4964015;28;20054;-69
2022/09/29 12:11:04;;;;;;;1.75;0.90;;;27.70;66.10;;;;;;4943980;28;20054;-75
2022/09/29 12:13:44;;;;;;;2.55;0.80;;;27.80;65.60;;;;;;4962112;28;20050;-69
2022/09/29 12:16:14;;;;;;;2.22;0.82;;;28.00;65.20;;;;;;4942559;28;20055;-68
2022/09/29 12:18:47;;;;;;;1.80;0.98;;;27.10;66.90;;;;;;4959044;28;20050;-67
2022/09/29 12:21:17;;;;;;;2.60;1.00;;;25.20;68.00;;;;;;4946417;28;20451;-67
2022/09/29 12:23:46;;;;;;;1.90;1.00;;;23.90;70.70;;;;;;4959883;28;20048;-68
2022/09/29 12:26:18;;;;;;;1.90;1.00;;;22.60;73.10;;;;;;4959195;28;20415;-71
2022/09/29 12:28:50;;;;;;;1.85;0.70;;;21.70;75.10;;;;;;4965146;28;20051;-72
2022/09/29 12:31:24;;;;;;;2.80;0.85;;;20.60;76.20;;;;;;4953816;28;20055;-68
2022/09/29 12:33:56;;;;;;;2.95;1.10;;;20.10;77.40;;;;;;4961756;28;20518;-66
2022/09/29 12:36:44;;;;;;;4.25;0.98;;;19.70;79.50;;;;;;4959838;28;20073;-68
2022/09/29 12:39:26;;;;;;;4.78;1.20;;;19.30;80.80;;;;;;4960855;29;20566;-67
2022/09/29 12:41:56;;;;;;;2.30;1.30;;;19.00;81.80;;;;;;4944004;29;20059;-66
2022/09/29 12:44:30;;;;;;;2.30;1.00;;;19.00;82.30;;;;;;4943910;29;20054;-66
2022/09/29 12:47:04;;;;;;;1.40;0.80;;;18.90;82.60;;;;;;4960483;29;20086;-66
2022/09/29 12:49:38;;;;;;;2.63;0.98;;;18.50;82.90;;;;;;4960063;28;20094;-66
2022/09/29 12:52:13;;;;;;;2.05;1.10;;;18.40;83.60;;;;;;4943540;28;20530;-67
2022/09/29 12:54:46;;;;;;;1.95;0.90;;;18.10;84.50;;;;;;4960338;29;20114;-66
2022/09/29 12:57:17;;;;;;;3.22;1.00;;;18.10;86.10;;;;;;4942544;29;20098;-67
2022/09/29 12:59:54;;;;;;;3.90;1.20;;;17.90;86.90;;;;;;4944013;29;20055;-66
2022/09/29 13:02:47;;;;;;;2.13;0.90;;;17.70;89.20;;;;;;4943361;29;20059;-65
2022/09/29 13:05:46;;;;;;;2.88;1.40;;;17.40;90.00;;;;;;4942846;29;20047;-66
2022/09/29 13:08:42;;;;;;;4.57;1.40;;;17.20;90.70;;;;;;4949565;28;20050;-66
2022/09/29 13:11:26;;;;;;;2.58;0.90;;;17.20;91.00;;;;;;4972868;28;20059;-66
2022/09/29 13:14:15;;;;;;;2.42;1.20;;;17.10;91.40;;;;;;4976826;28;20057;-67